sensor_id;sensor_type;location;lat;lon;timestamp;P1;durP1;ratioP1;P2;durP2;ratioP2
47519;SDS011;33252;48.122;11.538;2023-11-19T00:00:42;2.70;;;1.70;;
47519;SDS011;33252;48.122;11.538;2023-11-19T00:03:07;2.38;;;1.50;;
47519;SDS011;33252;48.122;11.538;2023-11-19T00:05:33;3.88;;;2.55;;
47519;SDS011;33252;48.122;11.538;2023-11-19T00:07:59;2.70;;;2.10;;
47519;SDS011;33252;48.122;11.538;2023-11-19T00:10:24;2.80;;;2.33;;
47519;SDS011;33252;48.122;11.538;2023-11-19T00:12:50;2.53;;;2.30;;
47519;SDS011;33252;48.122;11.538;2023-11-19T00:15:16;2.80;;;1.90;;
47519;SDS011;33252;48.122;11.538;2023-11-19T00:17:46;2.88;;;1.73;;
47519;SDS011;33252;48.122;11.538;2023-11-19T00:20:14;3.83;;;1.85;;
47519;SDS011;33252;48.122;11.538;2023-11-19T00:22:40;3.92;;;1.75;;
47519;SDS011;33252;48.122;11.538;2023-11-19T00:25:07;2.78;;;1.63;;
47519;SDS011;33252;48.122;11.538;2023-11-19T00:27:36;3.58;;;2.15;;
47519;SDS011;33252;48.122;11.538;2023-11-19T00:30:07;2.45;;;1.70;;
47519;SDS011;33252;48.122;11.538;2023-11-19T00:32:33;2.42;;;1.63;;
47519;SDS011;33252;48.122;11.538;2023-11-19T00:34:58;4.95;;;2.15;;
47519;SDS011;33252;48.122;11.538;2023-11-19T00:37:24;4.70;;;2.10;;
47519;SDS011;33252;48.122;11.538;2023-11-19T00:39:50;10.45;;;5.38;;
47519;SDS011;33252;48.122;11.538;2023-11-19T00:42:17;3.13;;;1.83;;
47519;SDS011;33252;48.122;11.538;2023-11-19T00:44:42;2.35;;;1.52;;
47519;SDS011;33252;48.122;11.538;2023-11-19T00:47:08;2.58;;;1.50;;
47519;SDS011;33252;48.122;11.538;2023-11-19T00:49:33;2.55;;;1.42;;
47519;SDS011;33252;48.122;11.538;2023-11-19T00:51:59;3.58;;;1.48;;
47519;SDS011;33252;48.122;11.538;2023-11-19T00:54:25;1.67;;;0.93;;
47519;SDS011;33252;48.122;11.538;2023-11-19T00:56:53;2.50;;;1.33;;
47519;SDS011;33252;48.122;11.538;2023-11-19T00:59:18;3.10;;;1.58;;
47519;SDS011;33252;48.122;11.538;2023-11-19T01:01:44;2.72;;;1.25;;
47519;SDS011;33252;48.122;11.538;2023-11-19T01:04:10;2.85;;;1.27;;
47519;SDS011;33252;48.122;11.538;2023-11-19T01:06:35;2.85;;;1.17;;
47519;SDS011;33252;48.122;11.538;2023-11-19T01:09:01;5.72;;;1.75;;
47519;SDS011;33252;48.122;11.538;2023-11-19T01:11:27;5.75;;;2.00;;
47519;SDS011;33252;48.122;11.538;2023-11-19T01:13:53;2.35;;;1.30;;
47519;SDS011;33252;48.122;11.538;2023-11-19T01:16:18;4.70;;;1.42;;
47519;SDS011;33252;48.122;11.538;2023-11-19T01:18:46;3.17;;;1.27;;
47519;SDS011;33252;48.122;11.538;2023-11-19T01:21:12;3.30;;;1.80;;
47519;SDS011;33252;48.122;11.538;2023-11-19T01:23:39;2.72;;;1.30;;
47519;SDS011;33252;48.122;11.538;2023-11-19T01:26:07;4.07;;;1.52;;
47519;SDS011;33252;48.122;11.538;2023-11-19T01:28:35;2.58;;;1.40;;
47519;SDS011;33252;48.122;11.538;2023-11-19T01:31:00;2.70;;;1.27;;
47519;SDS011;33252;48.122;11.538;2023-11-19T01:33:26;3.05;;;1.23;;
47519;SDS011;33252;48.122;11.538;2023-11-19T01:35:52;2.33;;;1.17;;
47519;SDS011;33252;48.122;11.538;2023-11-19T01:38:18;2.63;;;1.02;;
47519;SDS011;33252;48.122;11.538;2023-11-19T01:40:44;3.95;;;1.58;;
47519;SDS011;33252;48.122;11.538;2023-11-19T01:43:09;2.60;;;1.35;;
47519;SDS011;33252;48.122;11.538;2023-11-19T01:45:36;2.17;;;1.48;;
47519;SDS011;33252;48.122;11.538;2023-11-19T01:48:03;2.50;;;1.45;;
47519;SDS011;33252;48.122;11.538;2023-11-19T01:50:29;2.08;;;1.25;;
47519;SDS011;33252;48.122;11.538;2023-11-19T01:52:56;2.15;;;1.08;;
47519;SDS011;33252;48.122;11.538;2023-11-19T01:55:22;2.50;;;1.30;;
47519;SDS011;33252;48.122;11.538;2023-11-19T01:57:50;2.10;;;1.38;;
47519;SDS011;33252;48.122;11.538;2023-11-19T02:00:18;1.92;;;0.95;;
47519;SDS011;33252;48.122;11.538;2023-11-19T02:02:44;3.30;;;1.50;;
47519;SDS011;33252;48.122;11.538;2023-11-19T02:05:13;2.50;;;1.20;;
47519;SDS011;33252;48.122;11.538;2023-11-19T02:07:39;1.58;;;0.90;;
47519;SDS011;33252;48.122;11.538;2023-11-19T02:10:05;2.20;;;1.33;;
47519;SDS011;33252;48.122;11.538;2023-11-19T02:12:33;3.42;;;1.42;;
47519;SDS011;33252;48.122;11.538;2023-11-19T02:14:59;2.05;;;0.90;;
47519;SDS011;33252;48.122;11.538;2023-11-19T02:17:28;1.52;;;0.98;;
47519;SDS011;33252;48.122;11.538;2023-11-19T02:19:56;1.90;;;0.90;;
47519;SDS011;33252;48.122;11.538;2023-11-19T02:22:23;1.70;;;0.85;;
47519;SDS011;33252;48.122;11.538;2023-11-19T02:24:49;2.13;;;1.00;;
47519;SDS011;33252;48.122;11.538;2023-11-19T02:27:23;0.60;;;0.57;;
47519;SDS011;33252;48.122;11.538;2023-11-19T02:29:55;1.52;;;0.90;;
47519;SDS011;33252;48.122;11.538;2023-11-19T02:32:22;1.67;;;0.60;;
47519;SDS011;33252;48.122;11.538;2023-11-19T02:34:48;2.50;;;0.90;;
47519;SDS011;33252;48.122;11.538;2023-11-19T02:37:14;2.45;;;0.88;;
47519;SDS011;33252;48.122;11.538;2023-11-19T02:39:39;1.35;;;0.52;;
47519;SDS011;33252;48.122;11.538;2023-11-19T02:42:06;0.90;;;0.45;;
47519;SDS011;33252;48.122;11.538;2023-11-19T02:44:33;1.83;;;0.70;;
47519;SDS011;33252;48.122;11.538;2023-11-19T02:46:59;2.67;;;0.40;;
47519;SDS011;33252;48.122;11.538;2023-11-19T02:49:24;2.25;;;0.40;;
47519;SDS011;33252;48.122;11.538;2023-11-19T02:51:50;0.68;;;0.40;;
47519;SDS011;33252;48.122;11.538;2023-11-19T02:54:16;0.73;;;0.40;;
47519;SDS011;33252;48.122;11.538;2023-11-19T02:56:44;2.17;;;0.52;;
47519;SDS011;33252;48.122;11.538;2023-11-19T02:59:12;2.30;;;0.50;;
47519;SDS011;33252;48.122;11.538;2023-11-19T03:01:52;0.40;;;0.22;;
47519;SDS011;33252;48.122;11.538;2023-11-19T03:04:18;1.35;;;0.30;;
47519;SDS011;33252;48.122;11.538;2023-11-19T03:06:45;0.70;;;0.45;;
47519;SDS011;33252;48.122;11.538;2023-11-19T03:09:10;1.70;;;0.38;;
47519;SDS011;33252;48.122;11.538;2023-11-19T03:11:36;2.85;;;0.60;;
47519;SDS011;33252;48.122;11.538;2023-11-19T03:14:02;1.83;;;0.40;;
47519;SDS011;33252;48.122;11.538;2023-11-19T03:16:28;0.57;;;0.30;;
47519;SDS011;33252;48.122;11.538;2023-11-19T03:18:54;0.63;;;0.30;;
47519;SDS011;33252;48.122;11.538;2023-11-19T03:21:26;1.33;;;0.63;;
47519;SDS011;33252;48.122;11.538;2023-11-19T03:23:56;1.20;;;0.40;;
47519;SDS011;33252;48.122;11.538;2023-11-19T03:26:23;1.05;;;0.30;;
47519;SDS011;33252;48.122;11.538;2023-11-19T03:28:48;4.68;;;0.30;;
47519;SDS011;33252;48.122;11.538;2023-11-19T03:31:14;0.50;;;0.22;;
47519;SDS011;33252;48.122;11.538;2023-11-19T03:33:39;0.93;;;0.25;;
47519;SDS011;33252;48.122;11.538;2023-11-19T03:36:05;0.75;;;0.30;;
47519;SDS011;33252;48.122;11.538;2023-11-19T03:38:32;0.82;;;0.40;;
47519;SDS011;33252;48.122;11.538;2023-11-19T03:40:57;0.43;;;0.35;;
47519;SDS011;33252;48.122;11.538;2023-11-19T03:43:24;0.50;;;0.38;;
47519;SDS011;33252;48.122;11.538;2023-11-19T03:45:49;0.63;;;0.25;;
47519;SDS011;33252;48.122;11.538;2023-11-19T03:48:15;0.57;;;0.30;;
47519;SDS011;33252;48.122;11.538;2023-11-19T03:50:44;1.00;;;0.50;;
47519;SDS011;33252;48.122;11.538;2023-11-19T03:53:09;0.30;;;0.30;;
47519;SDS011;33252;48.122;11.538;2023-11-19T03:55:36;0.50;;;0.40;;
47519;SDS011;33252;48.122;11.538;2023-11-19T03:58:01;2.20;;;0.40;;
47519;SDS011;33252;48.122;11.538;2023-11-19T04:00:27;0.93;;;0.32;;
47519;SDS011;33252;48.122;11.538;2023-11-19T04:02:52;0.80;;;0.30;;
47519;SDS011;33252;48.122;11.538;2023-11-19T04:05:18;1.00;;;0.17;;
47519;SDS011;33252;48.122;11.538;2023-11-19T04:07:43;1.10;;;1.00;;
47519;SDS011;33252;48.122;11.538;2023-11-19T04:10:09;0.65;;;0.30;;
47519;SDS011;33252;48.122;11.538;2023-11-19T04:12:35;0.63;;;0.20;;
47519;SDS011;33252;48.122;11.538;2023-11-19T04:15:00;0.57;;;0.25;;
47519;SDS011;33252;48.122;11.538;2023-11-19T04:17:26;1.77;;;0.30;;
47519;SDS011;33252;48.122;11.538;2023-11-19T04:19:51;0.35;;;0.20;;
47519;SDS011;33252;48.122;11.538;2023-11-19T04:22:17;0.40;;;0.20;;
47519;SDS011;33252;48.122;11.538;2023-11-19T04:24:42;0.98;;;0.20;;
47519;SDS011;33252;48.122;11.538;2023-11-19T04:27:10;0.65;;;0.30;;
47519;SDS011;33252;48.122;11.538;2023-11-19T04:29:36;0.40;;;0.20;;
47519;SDS011;33252;48.122;11.538;2023-11-19T04:32:01;0.30;;;0.10;;
47519;SDS011;33252;48.122;11.538;2023-11-19T04:34:27;0.20;;;0.20;;
47519;SDS011;33252;48.122;11.538;2023-11-19T04:36:52;0.43;;;0.10;;
47519;SDS011;33252;48.122;11.538;2023-11-19T04:39:19;2.72;;;0.20;;
47519;SDS011;33252;48.122;11.538;2023-11-19T04:41:50;0.50;;;0.10;;
47519;SDS011;33252;48.122;11.538;2023-11-19T04:44:19;0.28;;;0.20;;
47519;SDS011;33252;48.122;11.538;2023-11-19T04:46:45;1.08;;;0.17;;
47519;SDS011;33252;48.122;11.538;2023-11-19T04:49:11;1.15;;;0.10;;
47519;SDS011;33252;48.122;11.538;2023-11-19T04:51:41;0.55;;;0.20;;
47519;SDS011;33252;48.122;11.538;2023-11-19T04:54:07;0.65;;;0.10;;
47519;SDS011;33252;48.122;11.538;2023-11-19T04:56:34;0.30;;;0.15;;
47519;SDS011;33252;48.122;11.538;2023-11-19T04:59:01;1.25;;;0.20;;
47519;SDS011;33252;48.122;11.538;2023-11-19T05:01:27;0.85;;;0.40;;
47519;SDS011;33252;48.122;11.538;2023-11-19T05:03:53;1.23;;;0.20;;
47519;SDS011;33252;48.122;11.538;2023-11-19T05:06:18;0.93;;;0.20;;
47519;SDS011;33252;48.122;11.538;2023-11-19T05:08:44;0.70;;;0.10;;
47519;SDS011;33252;48.122;11.538;2023-11-19T05:11:10;0.20;;;0.13;;
47519;SDS011;33252;48.122;11.538;2023-11-19T05:13:37;0.40;;;0.20;;
47519;SDS011;33252;48.122;11.538;2023-11-19T05:16:03;0.45;;;0.22;;
47519;SDS011;33252;48.122;11.538;2023-11-19T05:18:29;1.27;;;0.30;;
47519;SDS011;33252;48.122;11.538;2023-11-19T05:20:54;1.33;;;0.17;;
47519;SDS011;33252;48.122;11.538;2023-11-19T05:23:20;1.92;;;0.38;;
47519;SDS011;33252;48.122;11.538;2023-11-19T05:25:46;0.43;;;0.20;;
47519;SDS011;33252;48.122;11.538;2023-11-19T05:28:12;0.90;;;0.13;;
47519;SDS011;33252;48.122;11.538;2023-11-19T05:30:39;0.40;;;0.20;;
47519;SDS011;33252;48.122;11.538;2023-11-19T05:33:05;2.40;;;1.73;;
47519;SDS011;33252;48.122;11.538;2023-11-19T05:35:31;0.57;;;0.20;;
47519;SDS011;33252;48.122;11.538;2023-11-19T05:37:57;0.60;;;0.52;;
47519;SDS011;33252;48.122;11.538;2023-11-19T05:40:23;0.45;;;0.22;;
47519;SDS011;33252;48.122;11.538;2023-11-19T05:42:48;0.45;;;0.30;;
47519;SDS011;33252;48.122;11.538;2023-11-19T05:45:14;0.50;;;0.22;;
47519;SDS011;33252;48.122;11.538;2023-11-19T05:47:40;0.47;;;0.10;;
47519;SDS011;33252;48.122;11.538;2023-11-19T05:50:06;1.40;;;0.43;;
47519;SDS011;33252;48.122;11.538;2023-11-19T05:52:33;0.50;;;0.30;;
47519;SDS011;33252;48.122;11.538;2023-11-19T05:55:02;1.20;;;0.40;;
47519;SDS011;33252;48.122;11.538;2023-11-19T05:57:30;0.50;;;0.30;;
47519;SDS011;33252;48.122;11.538;2023-11-19T05:59:56;0.60;;;0.20;;
47519;SDS011;33252;48.122;11.538;2023-11-19T06:02:22;0.35;;;0.20;;
47519;SDS011;33252;48.122;11.538;2023-11-19T06:04:47;0.75;;;0.30;;
47519;SDS011;33252;48.122;11.538;2023-11-19T06:07:13;0.60;;;0.30;;
47519;SDS011;33252;48.122;11.538;2023-11-19T06:09:40;0.20;;;0.20;;
47519;SDS011;33252;48.122;11.538;2023-11-19T06:12:06;0.28;;;0.20;;
47519;SDS011;33252;48.122;11.538;2023-11-19T06:14:32;0.57;;;0.17;;
47519;SDS011;33252;48.122;11.538;2023-11-19T06:16:58;0.45;;;0.20;;
47519;SDS011;33252;48.122;11.538;2023-11-19T06:19:23;0.40;;;0.20;;
47519;SDS011;33252;48.122;11.538;2023-11-19T06:21:50;0.22;;;0.20;;
47519;SDS011;33252;48.122;11.538;2023-11-19T06:24:15;0.38;;;0.10;;
47519;SDS011;33252;48.122;11.538;2023-11-19T06:26:41;0.10;;;0.10;;
47519;SDS011;33252;48.122;11.538;2023-11-19T06:29:06;0.10;;;0.10;;
47519;SDS011;33252;48.122;11.538;2023-11-19T06:31:32;0.35;;;0.25;;
47519;SDS011;33252;48.122;11.538;2023-11-19T06:33:57;1.30;;;0.10;;
47519;SDS011;33252;48.122;11.538;2023-11-19T06:36:23;2.08;;;1.40;;
47519;SDS011;33252;48.122;11.538;2023-11-19T06:38:49;0.10;;;0.10;;
47519;SDS011;33252;48.122;11.538;2023-11-19T06:41:14;0.68;;;0.20;;
47519;SDS011;33252;48.122;11.538;2023-11-19T06:43:40;0.95;;;0.90;;
47519;SDS011;33252;48.122;11.538;2023-11-19T06:46:06;0.20;;;0.10;;
47519;SDS011;33252;48.122;11.538;2023-11-19T06:48:40;0.47;;;0.03;;
47519;SDS011;33252;48.122;11.538;2023-11-19T06:51:07;0.35;;;0.20;;
47519;SDS011;33252;48.122;11.538;2023-11-19T06:53:33;0.17;;;0.10;;
47519;SDS011;33252;48.122;11.538;2023-11-19T06:55:59;0.45;;;0.10;;
47519;SDS011;33252;48.122;11.538;2023-11-19T06:58:25;0.10;;;0.10;;
47519;SDS011;33252;48.122;11.538;2023-11-19T07:00:51;1.35;;;0.20;;
47519;SDS011;33252;48.122;11.538;2023-11-19T07:03:16;0.10;;;0.10;;
47519;SDS011;33252;48.122;11.538;2023-11-19T07:05:42;0.22;;;0.10;;
47519;SDS011;33252;48.122;11.538;2023-11-19T07:08:08;0.40;;;0.10;;
47519;SDS011;33252;48.122;11.538;2023-11-19T07:10:34;1.38;;;0.05;;
47519;SDS011;33252;48.122;11.538;2023-11-19T07:12:59;0.43;;;0.17;;
47519;SDS011;33252;48.122;11.538;2023-11-19T07:15:25;0.40;;;0.10;;
47519;SDS011;33252;48.122;11.538;2023-11-19T07:17:51;0.20;;;0.10;;
47519;SDS011;33252;48.122;11.538;2023-11-19T07:20:16;0.03;;;0.00;;
47519;SDS011;33252;48.122;11.538;2023-11-19T07:22:44;0.17;;;0.10;;
47519;SDS011;33252;48.122;11.538;2023-11-19T07:25:13;0.25;;;0.10;;
47519;SDS011;33252;48.122;11.538;2023-11-19T07:27:39;0.40;;;0.10;;
47519;SDS011;33252;48.122;11.538;2023-11-19T07:30:05;0.60;;;0.10;;
47519;SDS011;33252;48.122;11.538;2023-11-19T07:32:32;0.50;;;0.10;;
47519;SDS011;33252;48.122;11.538;2023-11-19T07:34:58;0.10;;;0.00;;
47519;SDS011;33252;48.122;11.538;2023-11-19T07:37:24;0.13;;;0.10;;
47519;SDS011;33252;48.122;11.538;2023-11-19T07:39:50;2.13;;;0.10;;
47519;SDS011;33252;48.122;11.538;2023-11-19T07:42:15;0.47;;;0.10;;
47519;SDS011;33252;48.122;11.538;2023-11-19T07:44:41;0.30;;;0.10;;
47519;SDS011;33252;48.122;11.538;2023-11-19T07:47:07;0.25;;;0.10;;
47519;SDS011;33252;48.122;11.538;2023-11-19T07:49:33;0.20;;;0.00;;
47519;SDS011;33252;48.122;11.538;2023-11-19T07:51:59;0.30;;;0.10;;
47519;SDS011;33252;48.122;11.538;2023-11-19T07:54:24;0.20;;;0.10;;
47519;SDS011;33252;48.122;11.538;2023-11-19T07:56:50;0.28;;;0.10;;
47519;SDS011;33252;48.122;11.538;2023-11-19T07:59:16;0.30;;;0.10;;
47519;SDS011;33252;48.122;11.538;2023-11-19T08:01:41;0.10;;;0.10;;
47519;SDS011;33252;48.122;11.538;2023-11-19T08:04:07;0.10;;;0.10;;
47519;SDS011;33252;48.122;11.538;2023-11-19T08:06:32;0.25;;;0.10;;
47519;SDS011;33252;48.122;11.538;2023-11-19T08:08:58;0.25;;;0.10;;
47519;SDS011;33252;48.122;11.538;2023-11-19T08:11:24;0.40;;;0.20;;
47519;SDS011;33252;48.122;11.538;2023-11-19T08:13:49;0.32;;;0.10;;
47519;SDS011;33252;48.122;11.538;2023-11-19T08:16:15;0.70;;;0.20;;
47519;SDS011;33252;48.122;11.538;2023-11-19T08:18:41;0.35;;;0.10;;
47519;SDS011;33252;48.122;11.538;2023-11-19T08:21:08;0.10;;;0.00;;
47519;SDS011;33252;48.122;11.538;2023-11-19T08:23:34;0.38;;;0.20;;
47519;SDS011;33252;48.122;11.538;2023-11-19T08:26:00;0.57;;;0.30;;
47519;SDS011;33252;48.122;11.538;2023-11-19T08:28:26;0.17;;;0.00;;
47519;SDS011;33252;48.122;11.538;2023-11-19T08:30:52;0.20;;;0.10;;
47519;SDS011;33252;48.122;11.538;2023-11-19T08:33:18;0.55;;;0.20;;
47519;SDS011;33252;48.122;11.538;2023-11-19T08:35:43;0.38;;;0.13;;
47519;SDS011;33252;48.122;11.538;2023-11-19T08:38:10;0.35;;;0.10;;
47519;SDS011;33252;48.122;11.538;2023-11-19T08:40:36;0.28;;;0.10;;
47519;SDS011;33252;48.122;11.538;2023-11-19T08:43:02;0.20;;;0.10;;
47519;SDS011;33252;48.122;11.538;2023-11-19T08:45:27;0.40;;;0.10;;
47519;SDS011;33252;48.122;11.538;2023-11-19T08:47:53;0.68;;;0.20;;
47519;SDS011;33252;48.122;11.538;2023-11-19T08:50:18;0.17;;;0.08;;
47519;SDS011;33252;48.122;11.538;2023-11-19T08:52:44;0.15;;;0.10;;
47519;SDS011;33252;48.122;11.538;2023-11-19T08:55:09;0.32;;;0.13;;
47519;SDS011;33252;48.122;11.538;2023-11-19T08:57:36;1.40;;;0.30;;
47519;SDS011;33252;48.122;11.538;2023-11-19T09:00:02;0.32;;;0.20;;
47519;SDS011;33252;48.122;11.538;2023-11-19T09:02:32;0.40;;;0.20;;
47519;SDS011;33252;48.122;11.538;2023-11-19T09:04:58;0.50;;;0.20;;
47519;SDS011;33252;48.122;11.538;2023-11-19T09:07:24;1.15;;;0.20;;
47519;SDS011;33252;48.122;11.538;2023-11-19T09:09:49;0.73;;;0.30;;
47519;SDS011;33252;48.122;11.538;2023-11-19T09:12:15;0.65;;;0.20;;
47519;SDS011;33252;48.122;11.538;2023-11-19T09:14:40;0.30;;;0.20;;
47519;SDS011;33252;48.122;11.538;2023-11-19T09:17:07;0.20;;;0.10;;
47519;SDS011;33252;48.122;11.538;2023-11-19T09:19:33;0.30;;;0.20;;
47519;SDS011;33252;48.122;11.538;2023-11-19T09:22:00;1.42;;;0.10;;
47519;SDS011;33252;48.122;11.538;2023-11-19T09:24:26;0.30;;;0.10;;
47519;SDS011;33252;48.122;11.538;2023-11-19T09:26:51;0.40;;;0.20;;
47519;SDS011;33252;48.122;11.538;2023-11-19T09:29:17;2.10;;;0.30;;
47519;SDS011;33252;48.122;11.538;2023-11-19T09:31:43;0.47;;;0.20;;
47519;SDS011;33252;48.122;11.538;2023-11-19T09:34:08;0.30;;;0.20;;
47519;SDS011;33252;48.122;11.538;2023-11-19T09:36:34;0.43;;;0.20;;
47519;SDS011;33252;48.122;11.538;2023-11-19T09:38:59;2.55;;;0.40;;
47519;SDS011;33252;48.122;11.538;2023-11-19T09:41:26;0.20;;;0.10;;
47519;SDS011;33252;48.122;11.538;2023-11-19T09:43:53;0.57;;;0.20;;
47519;SDS011;33252;48.122;11.538;2023-11-19T09:46:18;0.32;;;0.20;;
47519;SDS011;33252;48.122;11.538;2023-11-19T09:48:44;0.43;;;0.20;;
47519;SDS011;33252;48.122;11.538;2023-11-19T09:51:10;0.43;;;0.30;;
47519;SDS011;33252;48.122;11.538;2023-11-19T09:53:36;0.57;;;0.20;;
47519;SDS011;33252;48.122;11.538;2023-11-19T09:56:03;2.13;;;0.20;;
47519;SDS011;33252;48.122;11.538;2023-11-19T09:58:30;0.43;;;0.28;;
47519;SDS011;33252;48.122;11.538;2023-11-19T10:00:56;0.57;;;0.30;;
47519;SDS011;33252;48.122;11.538;2023-11-19T10:03:26;0.47;;;0.20;;
47519;SDS011;33252;48.122;11.538;2023-11-19T10:05:54;1.88;;;0.20;;
47519;SDS011;33252;48.122;11.538;2023-11-19T10:08:21;0.68;;;0.30;;
47519;SDS011;33252;48.122;11.538;2023-11-19T10:10:47;0.22;;;0.10;;
47519;SDS011;33252;48.122;11.538;2023-11-19T10:13:13;0.32;;;0.15;;
47519;SDS011;33252;48.122;11.538;2023-11-19T10:15:39;0.25;;;0.10;;
47519;SDS011;33252;48.122;11.538;2023-11-19T10:18:05;0.60;;;0.25;;
47519;SDS011;33252;48.122;11.538;2023-11-19T10:20:37;0.52;;;0.20;;
47519;SDS011;33252;48.122;11.538;2023-11-19T10:23:05;0.40;;;0.20;;
47519;SDS011;33252;48.122;11.538;2023-11-19T10:25:30;0.20;;;0.10;;
47519;SDS011;33252;48.122;11.538;2023-11-19T10:27:58;1.17;;;0.20;;
47519;SDS011;33252;48.122;11.538;2023-11-19T10:30:25;0.73;;;0.25;;
47519;SDS011;33252;48.122;11.538;2023-11-19T10:33:14;0.70;;;0.20;;
47519;SDS011;33252;48.122;11.538;2023-11-19T10:38:22;0.75;;;0.75;;
47519;SDS011;33252;48.122;11.538;2023-11-19T10:40:48;0.40;;;0.20;;
47519;SDS011;33252;48.122;11.538;2023-11-19T10:43:15;0.15;;;0.10;;
47519;SDS011;33252;48.122;11.538;2023-11-19T10:45:42;0.52;;;0.20;;
47519;SDS011;33252;48.122;11.538;2023-11-19T10:48:08;0.30;;;0.20;;
47519;SDS011;33252;48.122;11.538;2023-11-19T10:50:34;0.55;;;0.10;;
47519;SDS011;33252;48.122;11.538;2023-11-19T10:53:00;1.20;;;0.20;;
47519;SDS011;33252;48.122;11.538;2023-11-19T10:55:30;0.70;;;0.10;;
47519;SDS011;33252;48.122;11.538;2023-11-19T10:58:01;0.57;;;0.10;;
47519;SDS011;33252;48.122;11.538;2023-11-19T11:00:52;0.68;;;0.10;;
47519;SDS011;33252;48.122;11.538;2023-11-19T11:03:24;0.65;;;0.10;;
47519;SDS011;33252;48.122;11.538;2023-11-19T11:05:51;0.75;;;0.20;;
47519;SDS011;33252;48.122;11.538;2023-11-19T11:08:17;1.13;;;0.52;;
47519;SDS011;33252;48.122;11.538;2023-11-19T11:10:44;0.30;;;0.10;;
47519;SDS011;33252;48.122;11.538;2023-11-19T11:13:13;0.57;;;0.22;;
47519;SDS011;33252;48.122;11.538;2023-11-19T11:15:39;1.13;;;0.22;;
47519;SDS011;33252;48.122;11.538;2023-11-19T11:18:08;0.47;;;0.30;;
47519;SDS011;33252;48.122;11.538;2023-11-19T11:20:34;0.30;;;0.20;;
47519;SDS011;33252;48.122;11.538;2023-11-19T11:25:54;0.30;;;0.10;;
47519;SDS011;33252;48.122;11.538;2023-11-19T11:31:31;0.60;;;0.20;;
47519;SDS011;33252;48.122;11.538;2023-11-19T11:34:14;0.52;;;0.17;;
47519;SDS011;33252;48.122;11.538;2023-11-19T11:39:33;0.40;;;0.10;;
47519;SDS011;33252;48.122;11.538;2023-11-19T11:42:33;0.10;;;0.10;;
47519;SDS011;33252;48.122;11.538;2023-11-19T11:50:13;0.45;;;0.10;;
47519;SDS011;33252;48.122;11.538;2023-11-19T11:55:27;0.40;;;0.10;;
47519;SDS011;33252;48.122;11.538;2023-11-19T11:57:53;0.40;;;0.10;;
47519;SDS011;33252;48.122;11.538;2023-11-19T12:00:26;0.40;;;0.20;;
47519;SDS011;33252;48.122;11.538;2023-11-19T12:03:00;1.57;;;0.20;;
47519;SDS011;33252;48.122;11.538;2023-11-19T12:05:27;0.98;;;0.28;;
47519;SDS011;33252;48.122;11.538;2023-11-19T12:07:56;1.33;;;0.65;;
47519;SDS011;33252;48.122;11.538;2023-11-19T12:10:25;0.52;;;0.30;;
47519;SDS011;33252;48.122;11.538;2023-11-19T12:12:57;0.30;;;0.10;;
47519;SDS011;33252;48.122;11.538;2023-11-19T12:15:23;0.77;;;0.22;;
47519;SDS011;33252;48.122;11.538;2023-11-19T12:17:51;0.30;;;0.10;;
47519;SDS011;33252;48.122;11.538;2023-11-19T12:20:18;0.13;;;0.10;;
47519;SDS011;33252;48.122;11.538;2023-11-19T12:22:45;0.77;;;0.17;;
47519;SDS011;33252;48.122;11.538;2023-11-19T12:25:11;0.90;;;0.10;;
47519;SDS011;33252;48.122;11.538;2023-11-19T12:27:41;0.75;;;0.10;;
47519;SDS011;33252;48.122;11.538;2023-11-19T12:30:08;0.65;;;0.05;;
47519;SDS011;33252;48.122;11.538;2023-11-19T12:32:38;0.35;;;0.10;;
47519;SDS011;33252;48.122;11.538;2023-11-19T12:35:04;0.95;;;0.20;;
47519;SDS011;33252;48.122;11.538;2023-11-19T12:37:30;0.82;;;0.17;;
47519;SDS011;33252;48.122;11.538;2023-11-19T12:39:56;0.52;;;0.10;;
47519;SDS011;33252;48.122;11.538;2023-11-19T12:42:34;1.80;;;0.10;;
47519;SDS011;33252;48.122;11.538;2023-11-19T12:45:01;0.25;;;0.10;;
47519;SDS011;33252;48.122;11.538;2023-11-19T12:47:27;0.30;;;0.10;;
47519;SDS011;33252;48.122;11.538;2023-11-19T12:49:56;0.40;;;0.20;;
47519;SDS011;33252;48.122;11.538;2023-11-19T12:52:22;0.10;;;0.10;;
47519;SDS011;33252;48.122;11.538;2023-11-19T12:54:48;0.43;;;0.13;;
47519;SDS011;33252;48.122;11.538;2023-11-19T12:57:14;0.68;;;0.20;;
47519;SDS011;33252;48.122;11.538;2023-11-19T12:59:40;0.10;;;0.10;;
47519;SDS011;33252;48.122;11.538;2023-11-19T13:02:06;0.73;;;0.20;;
47519;SDS011;33252;48.122;11.538;2023-11-19T13:04:32;1.15;;;0.50;;
47519;SDS011;33252;48.122;11.538;2023-11-19T13:06:58;0.50;;;0.20;;
47519;SDS011;33252;48.122;11.538;2023-11-19T13:09:27;0.50;;;0.20;;
47519;SDS011;33252;48.122;11.538;2023-11-19T13:11:53;0.47;;;0.20;;
47519;SDS011;33252;48.122;11.538;2023-11-19T13:14:21;0.45;;;0.20;;
47519;SDS011;33252;48.122;11.538;2023-11-19T13:16:47;0.10;;;0.10;;
47519;SDS011;33252;48.122;11.538;2023-11-19T13:19:12;0.30;;;0.20;;
47519;SDS011;33252;48.122;11.538;2023-11-19T13:21:39;0.25;;;0.17;;
47519;SDS011;33252;48.122;11.538;2023-11-19T13:24:06;0.93;;;0.40;;
47519;SDS011;33252;48.122;11.538;2023-11-19T13:26:31;1.30;;;0.20;;
47519;SDS011;33252;48.122;11.538;2023-11-19T13:28:57;0.22;;;0.20;;
47519;SDS011;33252;48.122;11.538;2023-11-19T13:31:22;0.47;;;0.20;;
47519;SDS011;33252;48.122;11.538;2023-11-19T13:33:48;0.60;;;0.20;;
47519;SDS011;33252;48.122;11.538;2023-11-19T13:36:13;0.40;;;0.20;;
47519;SDS011;33252;48.122;11.538;2023-11-19T13:38:39;0.47;;;0.20;;
47519;SDS011;33252;48.122;11.538;2023-11-19T13:41:09;1.00;;;0.30;;
47519;SDS011;33252;48.122;11.538;2023-11-19T13:43:36;0.38;;;0.20;;
47519;SDS011;33252;48.122;11.538;2023-11-19T13:46:02;1.00;;;0.25;;
47519;SDS011;33252;48.122;11.538;2023-11-19T13:48:28;2.50;;;0.70;;
47519;SDS011;33252;48.122;11.538;2023-11-19T13:50:55;0.80;;;0.35;;
47519;SDS011;33252;48.122;11.538;2023-11-19T13:53:21;0.73;;;0.30;;
47519;SDS011;33252;48.122;11.538;2023-11-19T13:55:48;0.90;;;0.50;;
47519;SDS011;33252;48.122;11.538;2023-11-19T13:58:14;0.43;;;0.30;;
47519;SDS011;33252;48.122;11.538;2023-11-19T14:00:40;1.42;;;0.30;;
47519;SDS011;33252;48.122;11.538;2023-11-19T14:03:07;1.58;;;0.38;;
47519;SDS011;33252;48.122;11.538;2023-11-19T14:05:32;2.25;;;0.22;;
47519;SDS011;33252;48.122;11.538;2023-11-19T14:07:58;1.02;;;0.20;;
47519;SDS011;33252;48.122;11.538;2023-11-19T14:10:24;1.17;;;0.30;;
47519;SDS011;33252;48.122;11.538;2023-11-19T14:12:49;1.13;;;0.40;;
47519;SDS011;33252;48.122;11.538;2023-11-19T14:15:15;1.70;;;0.30;;
47519;SDS011;33252;48.122;11.538;2023-11-19T14:17:43;0.60;;;0.20;;
47519;SDS011;33252;48.122;11.538;2023-11-19T14:20:09;1.38;;;0.20;;
47519;SDS011;33252;48.122;11.538;2023-11-19T14:22:41;0.57;;;0.20;;
47519;SDS011;33252;48.122;11.538;2023-11-19T14:25:08;0.98;;;0.10;;
47519;SDS011;33252;48.122;11.538;2023-11-19T14:27:38;0.50;;;0.20;;
47519;SDS011;33252;48.122;11.538;2023-11-19T14:30:05;0.25;;;0.13;;
47519;SDS011;33252;48.122;11.538;2023-11-19T14:32:32;0.93;;;0.20;;
47519;SDS011;33252;48.122;11.538;2023-11-19T14:34:57;0.70;;;0.20;;
47519;SDS011;33252;48.122;11.538;2023-11-19T14:37:23;0.20;;;0.10;;
47519;SDS011;33252;48.122;11.538;2023-11-19T14:39:49;0.52;;;0.20;;
47519;SDS011;33252;48.122;11.538;2023-11-19T14:42:15;2.03;;;0.28;;
47519;SDS011;33252;48.122;11.538;2023-11-19T14:44:41;0.10;;;0.10;;
47519;SDS011;33252;48.122;11.538;2023-11-19T14:47:07;0.20;;;0.10;;
47519;SDS011;33252;48.122;11.538;2023-11-19T14:49:34;0.17;;;0.10;;